sensor_id;sensor_type;location;lat;lon;timestamp;P1;durP1;ratioP1;P2;durP2;ratioP2
22713;SDS011;11524;50.846;4.326;2023-03-31T00:01:17;24.05;;;14.93;;
22713;SDS011;11524;50.846;4.326;2023-03-31T00:03:43;25.45;;;15.00;;
22713;SDS011;11524;50.846;4.326;2023-03-31T00:06:10;24.60;;;13.95;;
22713;SDS011;11524;50.846;4.326;2023-03-31T00:08:41;23.58;;;14.38;;
22713;SDS011;11524;50.846;4.326;2023-03-31T00:11:07;23.98;;;14.27;;
22713;SDS011;11524;50.846;4.326;2023-03-31T00:13:33;24.35;;;15.15;;
22713;SDS011;11524;50.846;4.326;2023-03-31T00:16:09;22.42;;;14.40;;
22713;SDS011;11524;50.846;4.326;2023-03-31T00:18:35;27.05;;;14.82;;
22713;SDS011;11524;50.846;4.326;2023-03-31T00:21:05;23.20;;;13.85;;
22713;SDS011;11524;50.846;4.326;2023-03-31T00:23:31;23.35;;;13.93;;
22713;SDS011;11524;50.846;4.326;2023-03-31T00:25:57;22.27;;;13.68;;
22713;SDS011;11524;50.846;4.326;2023-03-31T00:28:25;25.95;;;14.07;;
22713;SDS011;11524;50.846;4.326;2023-03-31T00:30:50;24.95;;;14.55;;
22713;SDS011;11524;50.846;4.326;2023-03-31T00:33:16;20.75;;;12.45;;
22713;SDS011;11524;50.846;4.326;2023-03-31T00:35:42;21.27;;;12.80;;
22713;SDS011;11524;50.846;4.326;2023-03-31T00:38:09;22.55;;;13.00;;
22713;SDS011;11524;50.846;4.326;2023-03-31T00:40:37;21.25;;;13.15;;
22713;SDS011;11524;50.846;4.326;2023-03-31T00:43:14;21.52;;;13.00;;
22713;SDS011;11524;50.846;4.326;2023-03-31T00:48:27;23.90;;;13.27;;
22713;SDS011;11524;50.846;4.326;2023-03-31T00:50:53;21.15;;;12.82;;
22713;SDS011;11524;50.846;4.326;2023-03-31T00:53:23;24.08;;;12.52;;
22713;SDS011;11524;50.846;4.326;2023-03-31T00:55:54;22.77;;;13.43;;
22713;SDS011;11524;50.846;4.326;2023-03-31T00:58:25;21.70;;;12.65;;
22713;SDS011;11524;50.846;4.326;2023-03-31T01:00:54;20.25;;;11.57;;
22713;SDS011;11524;50.846;4.326;2023-03-31T01:03:21;18.98;;;10.63;;
22713;SDS011;11524;50.846;4.326;2023-03-31T01:05:50;19.77;;;10.38;;
22713;SDS011;11524;50.846;4.326;2023-03-31T01:08:22;17.77;;;9.25;;
22713;SDS011;11524;50.846;4.326;2023-03-31T01:10:51;18.52;;;9.65;;
22713;SDS011;11524;50.846;4.326;2023-03-31T01:13:19;18.92;;;10.43;;
22713;SDS011;11524;50.846;4.326;2023-03-31T01:15:46;20.27;;;10.65;;
22713;SDS011;11524;50.846;4.326;2023-03-31T01:18:12;19.25;;;10.35;;
22713;SDS011;11524;50.846;4.326;2023-03-31T01:26:26;20.50;;;10.60;;
22713;SDS011;11524;50.846;4.326;2023-03-31T01:40:12;16.63;;;9.20;;
22713;SDS011;11524;50.846;4.326;2023-03-31T01:43:34;16.35;;;8.85;;
22713;SDS011;11524;50.846;4.326;2023-03-31T01:48:47;13.60;;;8.57;;
22713;SDS011;11524;50.846;4.326;2023-03-31T01:59:13;19.42;;;8.32;;
22713;SDS011;11524;50.846;4.326;2023-03-31T02:02:00;16.70;;;9.48;;
22713;SDS011;11524;50.846;4.326;2023-03-31T02:04:36;15.60;;;7.80;;
22713;SDS011;11524;50.846;4.326;2023-03-31T02:07:13;18.15;;;9.15;;
22713;SDS011;11524;50.846;4.326;2023-03-31T02:09:44;12.55;;;6.80;;
22713;SDS011;11524;50.846;4.326;2023-03-31T02:12:14;13.10;;;7.88;;
22713;SDS011;11524;50.846;4.326;2023-03-31T02:14:43;11.05;;;6.72;;
22713;SDS011;11524;50.846;4.326;2023-03-31T02:17:14;12.85;;;7.05;;
22713;SDS011;11524;50.846;4.326;2023-03-31T02:19:46;13.20;;;7.95;;
22713;SDS011;11524;50.846;4.326;2023-03-31T02:22:15;12.07;;;6.47;;
22713;SDS011;11524;50.846;4.326;2023-03-31T02:24:43;12.93;;;6.90;;
22713;SDS011;11524;50.846;4.326;2023-03-31T02:27:24;11.82;;;6.25;;
22713;SDS011;11524;50.846;4.326;2023-03-31T02:29:53;12.27;;;5.82;;
22713;SDS011;11524;50.846;4.326;2023-03-31T02:32:21;11.27;;;5.50;;
22713;SDS011;11524;50.846;4.326;2023-03-31T02:34:50;10.55;;;5.55;;
22713;SDS011;11524;50.846;4.326;2023-03-31T02:37:16;10.00;;;6.25;;
22713;SDS011;11524;50.846;4.326;2023-03-31T02:39:42;12.18;;;6.50;;
22713;SDS011;11524;50.846;4.326;2023-03-31T02:42:10;9.63;;;5.40;;
22713;SDS011;11524;50.846;4.326;2023-03-31T02:44:36;8.98;;;4.95;;
22713;SDS011;11524;50.846;4.326;2023-03-31T02:47:03;12.07;;;6.10;;
22713;SDS011;11524;50.846;4.326;2023-03-31T02:49:32;10.75;;;6.18;;
22713;SDS011;11524;50.846;4.326;2023-03-31T02:55:18;10.93;;;5.63;;
22713;SDS011;11524;50.846;4.326;2023-03-31T02:58:40;11.25;;;5.70;;
22713;SDS011;11524;50.846;4.326;2023-03-31T03:06:00;10.40;;;5.80;;
22713;SDS011;11524;50.846;4.326;2023-03-31T03:11:06;9.13;;;5.20;;
22713;SDS011;11524;50.846;4.326;2023-03-31T03:16:42;8.88;;;5.20;;
22713;SDS011;11524;50.846;4.326;2023-03-31T03:19:16;7.95;;;5.25;;
22713;SDS011;11524;50.846;4.326;2023-03-31T03:21:45;10.05;;;5.03;;
22713;SDS011;11524;50.846;4.326;2023-03-31T03:24:11;8.27;;;4.93;;
22713;SDS011;11524;50.846;4.326;2023-03-31T03:26:42;8.57;;;4.55;;
22713;SDS011;11524;50.846;4.326;2023-03-31T03:29:09;9.35;;;5.25;;
22713;SDS011;11524;50.846;4.326;2023-03-31T03:31:37;9.38;;;5.28;;
22713;SDS011;11524;50.846;4.326;2023-03-31T03:34:03;7.45;;;4.05;;
22713;SDS011;11524;50.846;4.326;2023-03-31T03:36:28;8.10;;;4.47;;
22713;SDS011;11524;50.846;4.326;2023-03-31T03:38:54;9.50;;;4.03;;
22713;SDS011;11524;50.846;4.326;2023-03-31T03:41:20;8.43;;;4.22;;
22713;SDS011;11524;50.846;4.326;2023-03-31T03:43:45;8.30;;;4.13;;
22713;SDS011;11524;50.846;4.326;2023-03-31T03:46:11;10.30;;;3.88;;
22713;SDS011;11524;50.846;4.326;2023-03-31T03:48:36;6.13;;;3.42;;
22713;SDS011;11524;50.846;4.326;2023-03-31T03:51:02;9.73;;;4.50;;
22713;SDS011;11524;50.846;4.326;2023-03-31T03:53:28;7.95;;;4.20;;
22713;SDS011;11524;50.846;4.326;2023-03-31T03:55:53;6.70;;;3.72;;
22713;SDS011;11524;50.846;4.326;2023-03-31T03:58:19;6.65;;;3.58;;
22713;SDS011;11524;50.846;4.326;2023-03-31T04:00:45;7.07;;;3.53;;
22713;SDS011;11524;50.846;4.326;2023-03-31T04:03:11;6.30;;;3.30;;
22713;SDS011;11524;50.846;4.326;2023-03-31T04:05:38;6.60;;;3.25;;
22713;SDS011;11524;50.846;4.326;2023-03-31T04:08:04;8.10;;;3.17;;
22713;SDS011;11524;50.846;4.326;2023-03-31T04:10:32;7.63;;;3.33;;
22713;SDS011;11524;50.846;4.326;2023-03-31T04:12:58;5.47;;;3.05;;
22713;SDS011;11524;50.846;4.326;2023-03-31T04:15:23;7.07;;;3.53;;
22713;SDS011;11524;50.846;4.326;2023-03-31T04:17:49;7.55;;;3.65;;
22713;SDS011;11524;50.846;4.326;2023-03-31T04:20:19;5.68;;;2.60;;
22713;SDS011;11524;50.846;4.326;2023-03-31T04:22:45;7.15;;;3.25;;
22713;SDS011;11524;50.846;4.326;2023-03-31T04:25:14;4.57;;;2.70;;
22713;SDS011;11524;50.846;4.326;2023-03-31T04:27:41;5.72;;;3.38;;
22713;SDS011;11524;50.846;4.326;2023-03-31T04:30:19;7.28;;;2.88;;
22713;SDS011;11524;50.846;4.326;2023-03-31T04:32:55;5.88;;;3.20;;
22713;SDS011;11524;50.846;4.326;2023-03-31T04:35:27;7.45;;;3.60;;
22713;SDS011;11524;50.846;4.326;2023-03-31T04:38:13;7.10;;;3.63;;
22713;SDS011;11524;50.846;4.326;2023-03-31T04:40:43;6.88;;;3.15;;
22713;SDS011;11524;50.846;4.326;2023-03-31T04:43:10;7.18;;;3.63;;
22713;SDS011;11524;50.846;4.326;2023-03-31T04:45:35;7.85;;;3.60;;
22713;SDS011;11524;50.846;4.326;2023-03-31T04:48:01;5.90;;;3.00;;
22713;SDS011;11524;50.846;4.326;2023-03-31T04:50:26;5.70;;;3.08;;
22713;SDS011;11524;50.846;4.326;2023-03-31T04:52:52;6.40;;;3.20;;
22713;SDS011;11524;50.846;4.326;2023-03-31T04:55:18;6.95;;;3.13;;
22713;SDS011;11524;50.846;4.326;2023-03-31T04:57:43;6.85;;;2.95;;
22713;SDS011;11524;50.846;4.326;2023-03-31T05:00:09;5.82;;;2.90;;
22713;SDS011;11524;50.846;4.326;2023-03-31T05:02:35;6.97;;;3.25;;
22713;SDS011;11524;50.846;4.326;2023-03-31T05:05:01;7.18;;;3.15;;
22713;SDS011;11524;50.846;4.326;2023-03-31T05:07:27;5.93;;;2.75;;
22713;SDS011;11524;50.846;4.326;2023-03-31T05:09:53;6.85;;;2.30;;
22713;SDS011;11524;50.846;4.326;2023-03-31T05:12:18;5.32;;;2.92;;
22713;SDS011;11524;50.846;4.326;2023-03-31T05:14:44;7.53;;;3.20;;
22713;SDS011;11524;50.846;4.326;2023-03-31T05:17:10;6.82;;;2.83;;
22713;SDS011;11524;50.846;4.326;2023-03-31T05:19:35;5.75;;;2.70;;
22713;SDS011;11524;50.846;4.326;2023-03-31T05:22:01;4.70;;;2.25;;
22713;SDS011;11524;50.846;4.326;2023-03-31T05:24:26;8.77;;;3.28;;
22713;SDS011;11524;50.846;4.326;2023-03-31T05:26:53;5.15;;;2.33;;
22713;SDS011;11524;50.846;4.326;2023-03-31T05:29:21;4.78;;;2.40;;
22713;SDS011;11524;50.846;4.326;2023-03-31T05:31:47;5.90;;;2.42;;
22713;SDS011;11524;50.846;4.326;2023-03-31T05:34:13;3.90;;;2.42;;
22713;SDS011;11524;50.846;4.326;2023-03-31T05:36:39;6.50;;;2.95;;
22713;SDS011;11524;50.846;4.326;2023-03-31T05:39:07;4.80;;;2.53;;
22713;SDS011;11524;50.846;4.326;2023-03-31T05:41:33;6.75;;;2.67;;
22713;SDS011;11524;50.846;4.326;2023-03-31T05:43:59;4.68;;;2.50;;
22713;SDS011;11524;50.846;4.326;2023-03-31T05:46:26;5.50;;;2.40;;
22713;SDS011;11524;50.846;4.326;2023-03-31T05:48:51;8.25;;;2.80;;
22713;SDS011;11524;50.846;4.326;2023-03-31T05:51:17;7.18;;;2.40;;
22713;SDS011;11524;50.846;4.326;2023-03-31T05:53:43;6.15;;;2.03;;
22713;SDS011;11524;50.846;4.326;2023-03-31T05:56:08;8.73;;;2.55;;
22713;SDS011;11524;50.846;4.326;2023-03-31T05:58:34;12.43;;;3.20;;
22713;SDS011;11524;50.846;4.326;2023-03-31T06:01:14;10.68;;;2.97;;
22713;SDS011;11524;50.846;4.326;2023-03-31T06:03:45;9.63;;;2.60;;
22713;SDS011;11524;50.846;4.326;2023-03-31T06:06:11;8.30;;;2.40;;
22713;SDS011;11524;50.846;4.326;2023-03-31T06:08:40;6.03;;;2.35;;
22713;SDS011;11524;50.846;4.326;2023-03-31T06:11:07;10.75;;;2.45;;
22713;SDS011;11524;50.846;4.326;2023-03-31T06:13:37;12.05;;;2.30;;
22713;SDS011;11524;50.846;4.326;2023-03-31T06:16:05;8.85;;;2.63;;
22713;SDS011;11524;50.846;4.326;2023-03-31T06:18:32;6.82;;;2.08;;
22713;SDS011;11524;50.846;4.326;2023-03-31T06:20:58;6.18;;;2.05;;
22713;SDS011;11524;50.846;4.326;2023-03-31T06:23:24;5.80;;;2.15;;
22713;SDS011;11524;50.846;4.326;2023-03-31T06:25:50;8.30;;;2.35;;
22713;SDS011;11524;50.846;4.326;2023-03-31T06:28:16;7.97;;;2.70;;
22713;SDS011;11524;50.846;4.326;2023-03-31T06:30:42;5.80;;;2.20;;
22713;SDS011;11524;50.846;4.326;2023-03-31T06:33:08;5.57;;;2.30;;
22713;SDS011;11524;50.846;4.326;2023-03-31T06:35:37;6.72;;;2.25;;
22713;SDS011;11524;50.846;4.326;2023-03-31T06:38:04;6.97;;;2.53;;
22713;SDS011;11524;50.846;4.326;2023-03-31T06:40:30;8.00;;;2.40;;
22713;SDS011;11524;50.846;4.326;2023-03-31T06:42:56;7.57;;;2.17;;
22713;SDS011;11524;50.846;4.326;2023-03-31T06:45:21;5.93;;;2.28;;
22713;SDS011;11524;50.846;4.326;2023-03-31T06:47:47;6.97;;;2.40;;
22713;SDS011;11524;50.846;4.326;2023-03-31T06:50:13;6.78;;;2.67;;
22713;SDS011;11524;50.846;4.326;2023-03-31T06:52:38;9.32;;;3.00;;
22713;SDS011;11524;50.846;4.326;2023-03-31T06:55:05;6.60;;;2.50;;
22713;SDS011;11524;50.846;4.326;2023-03-31T06:57:31;6.53;;;1.90;;
22713;SDS011;11524;50.846;4.326;2023-03-31T06:59:57;7.25;;;2.30;;
22713;SDS011;11524;50.846;4.326;2023-03-31T07:02:23;10.05;;;2.67;;
22713;SDS011;11524;50.846;4.326;2023-03-31T07:04:49;7.18;;;2.53;;
22713;SDS011;11524;50.846;4.326;2023-03-31T07:07:15;7.20;;;2.40;;
22713;SDS011;11524;50.846;4.326;2023-03-31T07:09:40;7.63;;;2.20;;
22713;SDS011;11524;50.846;4.326;2023-03-31T07:12:06;6.63;;;2.25;;
22713;SDS011;11524;50.846;4.326;2023-03-31T07:14:32;8.23;;;2.60;;
22713;SDS011;11524;50.846;4.326;2023-03-31T07:16:58;7.50;;;2.38;;
22713;SDS011;11524;50.846;4.326;2023-03-31T07:19:23;4.57;;;2.20;;
22713;SDS011;11524;50.846;4.326;2023-03-31T07:21:49;7.88;;;2.83;;
22713;SDS011;11524;50.846;4.326;2023-03-31T07:24:15;6.70;;;2.38;;
22713;SDS011;11524;50.846;4.326;2023-03-31T07:26:41;6.40;;;2.30;;
22713;SDS011;11524;50.846;4.326;2023-03-31T07:29:07;6.60;;;2.33;;
22713;SDS011;11524;50.846;4.326;2023-03-31T07:31:32;6.80;;;2.42;;
22713;SDS011;11524;50.846;4.326;2023-03-31T07:33:59;5.55;;;2.45;;
22713;SDS011;11524;50.846;4.326;2023-03-31T07:36:26;7.35;;;2.60;;
22713;SDS011;11524;50.846;4.326;2023-03-31T07:38:52;8.40;;;2.45;;
22713;SDS011;11524;50.846;4.326;2023-03-31T07:41:18;6.53;;;2.55;;
22713;SDS011;11524;50.846;4.326;2023-03-31T07:43:45;5.35;;;2.22;;
22713;SDS011;11524;50.846;4.326;2023-03-31T07:46:18;5.80;;;2.17;;
22713;SDS011;11524;50.846;4.326;2023-03-31T07:48:47;8.60;;;3.05;;
22713;SDS011;11524;50.846;4.326;2023-03-31T07:51:14;6.75;;;2.50;;
22713;SDS011;11524;50.846;4.326;2023-03-31T07:53:41;6.60;;;2.25;;
22713;SDS011;11524;50.846;4.326;2023-03-31T07:56:07;6.93;;;2.00;;
22713;SDS011;11524;50.846;4.326;2023-03-31T07:58:32;6.47;;;2.33;;
22713;SDS011;11524;50.846;4.326;2023-03-31T08:00:58;7.90;;;2.47;;
22713;SDS011;11524;50.846;4.326;2023-03-31T08:03:25;7.97;;;2.33;;
22713;SDS011;11524;50.846;4.326;2023-03-31T08:05:51;8.27;;;2.67;;
22713;SDS011;11524;50.846;4.326;2023-03-31T08:08:17;6.93;;;1.85;;
22713;SDS011;11524;50.846;4.326;2023-03-31T08:10:42;7.30;;;2.40;;
22713;SDS011;11524;50.846;4.326;2023-03-31T08:13:08;8.15;;;2.75;;
22713;SDS011;11524;50.846;4.326;2023-03-31T08:15:34;6.75;;;2.20;;
22713;SDS011;11524;50.846;4.326;2023-03-31T08:18:00;7.13;;;2.55;;
22713;SDS011;11524;50.846;4.326;2023-03-31T08:20:26;12.65;;;3.53;;
22713;SDS011;11524;50.846;4.326;2023-03-31T08:22:52;11.90;;;3.10;;
22713;SDS011;11524;50.846;4.326;2023-03-31T08:25:17;10.13;;;2.40;;
22713;SDS011;11524;50.846;4.326;2023-03-31T08:27:44;7.63;;;2.20;;
22713;SDS011;11524;50.846;4.326;2023-03-31T08:30:12;10.73;;;2.33;;
22713;SDS011;11524;50.846;4.326;2023-03-31T08:32:38;10.63;;;2.45;;
22713;SDS011;11524;50.846;4.326;2023-03-31T08:35:05;6.38;;;2.25;;
22713;SDS011;11524;50.846;4.326;2023-03-31T08:37:31;9.18;;;2.38;;
22713;SDS011;11524;50.846;4.326;2023-03-31T08:39:56;8.77;;;2.13;;
22713;SDS011;11524;50.846;4.326;2023-03-31T08:42:38;10.00;;;2.47;;
22713;SDS011;11524;50.846;4.326;2023-03-31T08:45:14;7.68;;;2.60;;
22713;SDS011;11524;50.846;4.326;2023-03-31T08:47:44;9.15;;;2.25;;
22713;SDS011;11524;50.846;4.326;2023-03-31T08:50:15;8.68;;;2.72;;
22713;SDS011;11524;50.846;4.326;2023-03-31T08:52:44;7.68;;;2.30;;
22713;SDS011;11524;50.846;4.326;2023-03-31T08:55:30;8.60;;;2.55;;
22713;SDS011;11524;50.846;4.326;2023-03-31T08:58:12;5.47;;;2.30;;
22713;SDS011;11524;50.846;4.326;2023-03-31T09:00:55;14.82;;;3.00;;
22713;SDS011;11524;50.846;4.326;2023-03-31T09:06:38;10.25;;;2.70;;
22713;SDS011;11524;50.846;4.326;2023-03-31T09:12:10;6.78;;;2.63;;
22713;SDS011;11524;50.846;4.326;2023-03-31T09:17:50;6.57;;;2.45;;
22713;SDS011;11524;50.846;4.326;2023-03-31T09:20:28;5.47;;;2.00;;
22713;SDS011;11524;50.846;4.326;2023-03-31T09:25:49;6.72;;;2.60;;
22713;SDS011;11524;50.846;4.326;2023-03-31T09:28:28;5.82;;;2.17;;
22713;SDS011;11524;50.846;4.326;2023-03-31T09:31:02;8.05;;;2.22;;
22713;SDS011;11524;50.846;4.326;2023-03-31T09:33:33;7.33;;;2.77;;
22713;SDS011;11524;50.846;4.326;2023-03-31T09:36:00;10.25;;;2.97;;
22713;SDS011;11524;50.846;4.326;2023-03-31T09:38:27;9.80;;;2.50;;
22713;SDS011;11524;50.846;4.326;2023-03-31T09:40:55;7.30;;;2.78;;
22713;SDS011;11524;50.846;4.326;2023-03-31T09:43:26;7.13;;;2.70;;
22713;SDS011;11524;50.846;4.326;2023-03-31T09:45:54;8.52;;;2.45;;
22713;SDS011;11524;50.846;4.326;2023-03-31T09:48:22;8.43;;;2.60;;
22713;SDS011;11524;50.846;4.326;2023-03-31T09:51:00;9.60;;;3.15;;
22713;SDS011;11524;50.846;4.326;2023-03-31T09:54:12;6.22;;;2.10;;
22713;SDS011;11524;50.846;4.326;2023-03-31T09:59:11;9.32;;;2.50;;
22713;SDS011;11524;50.846;4.326;2023-03-31T10:01:44;6.13;;;2.25;;
22713;SDS011;11524;50.846;4.326;2023-03-31T10:04:24;7.53;;;2.25;;
22713;SDS011;11524;50.846;4.326;2023-03-31T10:06:53;6.95;;;2.80;;
22713;SDS011;11524;50.846;4.326;2023-03-31T10:09:25;7.85;;;2.80;;
22713;SDS011;11524;50.846;4.326;2023-03-31T10:11:58;6.68;;;2.20;;
22713;SDS011;11524;50.846;4.326;2023-03-31T10:14:39;9.45;;;2.92;;
22713;SDS011;11524;50.846;4.326;2023-03-31T10:17:14;8.93;;;2.78;;
22713;SDS011;11524;50.846;4.326;2023-03-31T10:19:53;7.47;;;2.67;;
22713;SDS011;11524;50.846;4.326;2023-03-31T10:22:30;8.40;;;2.33;;
22713;SDS011;11524;50.846;4.326;2023-03-31T10:25:23;6.65;;;2.28;;
22713;SDS011;11524;50.846;4.326;2023-03-31T10:28:18;8.13;;;2.63;;
22713;SDS011;11524;50.846;4.326;2023-03-31T10:30:58;7.82;;;2.63;;
22713;SDS011;11524;50.846;4.326;2023-03-31T10:33:30;7.65;;;2.40;;
22713;SDS011;11524;50.846;4.326;2023-03-31T10:36:33;8.13;;;2.60;;
22713;SDS011;11524;50.846;4.326;2023-03-31T10:39:04;9.32;;;2.90;;
22713;SDS011;11524;50.846;4.326;2023-03-31T10:41:34;6.90;;;2.42;;
22713;SDS011;11524;50.846;4.326;2023-03-31T10:44:03;8.43;;;2.65;;
22713;SDS011;11524;50.846;4.326;2023-03-31T10:46:47;6.85;;;2.28;;
22713;SDS011;11524;50.846;4.326;2023-03-31T10:49:23;8.32;;;2.50;;
22713;SDS011;11524;50.846;4.326;2023-03-31T10:51:53;7.30;;;2.55;;
22713;SDS011;11524;50.846;4.326;2023-03-31T10:54:30;6.18;;;2.67;;
22713;SDS011;11524;50.846;4.326;2023-03-31T11:01:05;6.50;;;2.10;;
22713;SDS011;11524;50.846;4.326;2023-03-31T11:11:15;6.82;;;2.40;;
22713;SDS011;11524;50.846;4.326;2023-03-31T11:13:49;5.70;;;2.20;;
22713;SDS011;11524;50.846;4.326;2023-03-31T11:16:33;6.97;;;2.50;;
22713;SDS011;11524;50.846;4.326;2023-03-31T11:24:40;8.68;;;2.42;;
22713;SDS011;11524;50.846;4.326;2023-03-31T11:30:23;6.70;;;2.00;;
22713;SDS011;11524;50.846;4.326;2023-03-31T11:41:48;5.00;;;1.90;;
22713;SDS011;11524;50.846;4.326;2023-03-31T11:44:17;6.05;;;2.22;;
22713;SDS011;11524;50.846;4.326;2023-03-31T11:46:46;9.82;;;2.25;;
22713;SDS011;11524;50.846;4.326;2023-03-31T11:54:32;5.43;;;2.05;;
22713;SDS011;11524;50.846;4.326;2023-03-31T11:57:40;5.45;;;1.88;;
22713;SDS011;11524;50.846;4.326;2023-03-31T12:00:19;6.25;;;1.73;;
22713;SDS011;11524;50.846;4.326;2023-03-31T12:02:49;5.82;;;2.00;;
22713;SDS011;11524;50.846;4.326;2023-03-31T12:05:26;6.25;;;2.00;;
22713;SDS011;11524;50.846;4.326;2023-03-31T12:08:03;4.18;;;1.85;;
22713;SDS011;11524;50.846;4.326;2023-03-31T12:10:53;8.38;;;2.05;;
22713;SDS011;11524;50.846;4.326;2023-03-31T12:19:20;6.35;;;2.13;;
22713;SDS011;11524;50.846;4.326;2023-03-31T12:24:31;5.85;;;1.88;;
22713;SDS011;11524;50.846;4.326;2023-03-31T12:27:06;7.75;;;2.05;;
22713;SDS011;11524;50.846;4.326;2023-03-31T12:32:28;6.97;;;2.10;;
22713;SDS011;11524;50.846;4.326;2023-03-31T12:40:35;5.70;;;1.60;;
22713;SDS011;11524;50.846;4.326;2023-03-31T12:51:37;2.63;;;1.30;;
22713;SDS011;11524;50.846;4.326;2023-03-31T12:54:18;4.63;;;1.85;;
22713;SDS011;11524;50.846;4.326;2023-03-31T12:59:37;5.30;;;1.88;;
22713;SDS011;11524;50.846;4.326;2023-03-31T13:04:34;4.85;;;1.65;;
22713;SDS011;11524;50.846;4.326;2023-03-31T13:07:01;3.95;;;1.27;;
22713;SDS011;11524;50.846;4.326;2023-03-31T13:09:43;3.47;;;1.10;;
22713;SDS011;11524;50.846;4.326;2023-03-31T13:12:15;3.87;;;1.67;;
22713;SDS011;11524;50.846;4.326;2023-03-31T13:14:43;3.97;;;1.17;;
22713;SDS011;11524;50.846;4.326;2023-03-31T13:17:12;3.88;;;1.20;;
22713;SDS011;11524;50.846;4.326;2023-03-31T13:20:25;2.10;;;0.90;;
22713;SDS011;11524;50.846;4.326;2023-03-31T13:27:54;2.22;;;0.93;;
22713;SDS011;11524;50.846;4.326;2023-03-31T13:33:09;2.58;;;1.10;;
22713;SDS011;11524;50.846;4.326;2023-03-31T13:36:01;2.65;;;1.10;;
22713;SDS011;11524;50.846;4.326;2023-03-31T13:41:33;3.58;;;1.10;;
22713;SDS011;11524;50.846;4.326;2023-03-31T13:49:54;3.10;;;1.05;;
22713;SDS011;11524;50.846;4.326;2023-03-31T13:52:37;3.03;;;0.90;;
22713;SDS011;11524;50.846;4.326;2023-03-31T14:04:01;2.63;;;1.08;;
22713;SDS011;11524;50.846;4.326;2023-03-31T14:06:51;3.65;;;1.20;;
22713;SDS011;11524;50.846;4.326;2023-03-31T14:09:41;3.15;;;1.08;;
22713;SDS011;11524;50.846;4.326;2023-03-31T14:12:20;1.60;;;0.83;;
22713;SDS011;11524;50.846;4.326;2023-03-31T14:14:54;2.40;;;0.82;;
22713;SDS011;11524;50.846;4.326;2023-03-31T14:17:21;5.43;;;0.90;;
22713;SDS011;11524;50.846;4.326;2023-03-31T14:38:53;2.30;;;1.00;;
22713;SDS011;11524;50.846;4.326;2023-03-31T14:41:26;3.67;;;0.82;;
22713;SDS011;11524;50.846;4.326;2023-03-31T14:43:56;5.60;;;1.17;;
22713;SDS011;11524;50.846;4.326;2023-03-31T14:46:24;2.40;;;0.93;;
22713;SDS011;11524;50.846;4.326;2023-03-31T14:48:50;3.50;;;1.00;;
22713;SDS011;11524;50.846;4.326;2023-03-31T14:51:17;2.78;;;1.00;;
22713;SDS011;11524;50.846;4.326;2023-03-31T14:53:57;9.05;;;0.88;;
22713;SDS011;11524;50.846;4.326;2023-03-31T14:56:34;3.95;;;1.02;;
22713;SDS011;11524;50.846;4.326;2023-03-31T14:59:03;4.72;;;0.88;;
22713;SDS011;11524;50.846;4.326;2023-03-31T15:01:31;1.92;;;0.80;;
22713;SDS011;11524;50.846;4.326;2023-03-31T15:04:20;4.38;;;0.80;;
22713;SDS011;11524;50.846;4.326;2023-03-31T15:06:49;6.03;;;1.25;;
22713;SDS011;11524;50.846;4.326;2023-03-31T15:09:23;2.40;;;1.00;;
22713;SDS011;11524;50.846;4.326;2023-03-31T15:11:56;3.55;;;1.35;;
22713;SDS011;11524;50.846;4.326;2023-03-31T15:14:31;3.88;;;0.90;;
22713;SDS011;11524;50.846;4.326;2023-03-31T15:17:00;2.90;;;1.02;;
22713;SDS011;11524;50.846;4.326;2023-03-31T15:19:30;3.03;;;1.00;;
22713;SDS011;11524;50.846;4.326;2023-03-31T15:22:15;2.47;;;0.70;;
22713;SDS011;11524;50.846;4.326;2023-03-31T15:24:43;4.77;;;1.10;;
22713;SDS011;11524;50.846;4.326;2023-03-31T15:27:11;1.77;;;0.68;;
22713;SDS011;11524;50.846;4.326;2023-03-31T15:29:54;1.63;;;0.80;;
22713;SDS011;11524;50.846;4.326;2023-03-31T15:32:24;2.67;;;0.70;;
22713;SDS011;11524;50.846;4.326;2023-03-31T15:34:54;2.63;;;0.90;;
22713;SDS011;11524;50.846;4.326;2023-03-31T15:37:21;1.67;;;0.77;;
22713;SDS011;11524;50.846;4.326;2023-03-31T15:39:51;1.75;;;0.60;;
22713;SDS011;11524;50.846;4.326;2023-03-31T15:42:22;1.73;;;0.60;;
22713;SDS011;11524;50.846;4.326;2023-03-31T15:47:28;1.83;;;0.90;;
22713;SDS011;11524;50.846;4.326;2023-03-31T15:49:57;6.30;;;0.80;;
22713;SDS011;11524;50.846;4.326;2023-03-31T15:52:47;1.58;;;0.63;;
22713;SDS011;11524;50.846;4.326;2023-03-31T15:55:25;4.18;;;1.02;;
22713;SDS011;11524;50.846;4.326;2023-03-31T15:57:57;6.47;;;2.90;;
22713;SDS011;11524;50.846;4.326;2023-03-31T16:02:56;14.65;;;5.40;;
22713;SDS011;11524;50.846;4.326;2023-03-31T16:06:08;24.23;;;7.03;;
22713;SDS011;11524;50.846;4.326;2023-03-31T16:08:22;17.70;;;8.00;;
22713;SDS011;11524;50.846;4.326;2023-03-31T16:10:56;24.10;;;8.32;;
22713;SDS011;11524;50.846;4.326;2023-03-31T16:13:26;21.63;;;7.97;;
22713;SDS011;11524;50.846;4.326;2023-03-31T16:15:54;20.45;;;8.48;;
22713;SDS011;11524;50.846;4.326;2023-03-31T16:21:02;22.98;;;10.48;;
22713;SDS011;11524;50.846;4.326;2023-03-31T16:23:31;22.02;;;9.65;;
22713;SDS011;11524;50.846;4.326;2023-03-31T16:25:59;26.50;;;9.73;;
22713;SDS011;11524;50.846;4.326;2023-03-31T16:28:26;20.55;;;8.70;;
22713;SDS011;11524;50.846;4.326;2023-03-31T16:30:55;19.00;;;7.72;;
22713;SDS011;11524;50.846;4.326;2023-03-31T16:33:22;17.92;;;7.60;;
22713;SDS011;11524;50.846;4.326;2023-03-31T16:35:50;21.00;;;9.20;;
22713;SDS011;11524;50.846;4.326;2023-03-31T16:38:18;19.15;;;7.93;;
22713;SDS011;11524;50.846;4.326;2023-03-31T16:40:46;22.48;;;7.63;;
22713;SDS011;11524;50.846;4.326;2023-03-31T16:43:15;19.35;;;7.25;;
22713;SDS011;11524;50.846;4.326;2023-03-31T16:45:44;17.13;;;7.05;;
22713;SDS011;11524;50.846;4.326;2023-03-31T16:48:11;19.05;;;7.72;;
22713;SDS011;11524;50.846;4.326;2023-03-31T16:50:38;18.45;;;7.30;;
22713;SDS011;11524;50.846;4.326;2023-03-31T16:53:05;18.00;;;8.23;;
22713;SDS011;11524;50.846;4.326;2023-03-31T16:55:30;17.10;;;7.00;;
22713;SDS011;11524;50.846;4.326;2023-03-31T16:57:57;15.00;;;6.60;;
22713;SDS011;11524;50.846;4.326;2023-03-31T17:00:26;16.33;;;7.38;;
22713;SDS011;11524;50.846;4.326;2023-03-31T17:02:53;16.63;;;6.53;;
22713;SDS011;11524;50.846;4.326;2023-03-31T17:05:18;13.65;;;5.93;;
22713;SDS011;11524;50.846;4.326;2023-03-31T17:07:45;17.38;;;6.20;;
22713;SDS011;11524;50.846;4.326;2023-03-31T17:10:10;10.40;;;5.68;;
22713;SDS011;11524;50.846;4.326;2023-03-31T17:12:36;14.18;;;6.18;;
22713;SDS011;11524;50.846;4.326;2023-03-31T17:15:02;12.15;;;4.80;;
22713;SDS011;11524;50.846;4.326;2023-03-31T17:17:28;11.55;;;5.57;;
22713;SDS011;11524;50.846;4.326;2023-03-31T17:19:54;11.82;;;5.15;;
22713;SDS011;11524;50.846;4.326;2023-03-31T17:22:21;13.98;;;5.70;;
22713;SDS011;11524;50.846;4.326;2023-03-31T17:24:47;15.50;;;5.80;;
22713;SDS011;11524;50.846;4.326;2023-03-31T17:27:13;11.95;;;5.22;;
22713;SDS011;11524;50.846;4.326;2023-03-31T17:29:39;10.52;;;4.70;;
22713;SDS011;11524;50.846;4.326;2023-03-31T17:32:05;12.00;;;4.50;;
22713;SDS011;11524;50.846;4.326;2023-03-31T17:34:30;11.82;;;4.30;;
22713;SDS011;11524;50.846;4.326;2023-03-31T17:36:56;12.00;;;5.03;;
22713;SDS011;11524;50.846;4.326;2023-03-31T17:39:22;9.05;;;4.22;;
22713;SDS011;11524;50.846;4.326;2023-03-31T17:41:47;12.70;;;4.25;;
22713;SDS011;11524;50.846;4.326;2023-03-31T17:44:13;13.02;;;4.25;;
22713;SDS011;11524;50.846;4.326;2023-03-31T17:46:39;11.15;;;4.40;;
22713;SDS011;11524;50.846;4.326;2023-03-31T17:49:04;10.40;;;3.85;;
22713;SDS011;11524;50.846;4.326;2023-03-31T17:51:30;10.05;;;3.95;;
22713;SDS011;11524;50.846;4.326;2023-03-31T17:53:58;7.80;;;4.05;;
22713;SDS011;11524;50.846;4.326;2023-03-31T17:56:24;13.55;;;4.13;;
22713;SDS011;11524;50.846;4.326;2023-03-31T17:58:49;11.52;;;3.97;;